sensor_id;sensor_type;location;lat;lon;timestamp;P1;durP1;ratioP1;P2;durP2;ratioP2
1679;SDS011;838;51.794;12.258;2023-06-01T00:00:37;2.63;;;1.37;;
1679;SDS011;838;51.794;12.258;2023-06-01T00:03:06;3.30;;;1.70;;
1679;SDS011;838;51.794;12.258;2023-06-01T00:05:31;3.60;;;1.93;;
1679;SDS011;838;51.794;12.258;2023-06-01T00:07:57;4.40;;;2.17;;
1679;SDS011;838;51.794;12.258;2023-06-01T00:10:23;3.37;;;1.87;;
1679;SDS011;838;51.794;12.258;2023-06-01T00:12:48;3.43;;;1.97;;
1679;SDS011;838;51.794;12.258;2023-06-01T00:15:14;3.43;;;2.03;;
1679;SDS011;838;51.794;12.258;2023-06-01T00:17:40;2.83;;;1.70;;
1679;SDS011;838;51.794;12.258;2023-06-01T00:20:06;3.93;;;1.70;;
1679;SDS011;838;51.794;12.258;2023-06-01T00:22:33;3.20;;;1.60;;
1679;SDS011;838;51.794;12.258;2023-06-01T00:25:03;3.40;;;1.97;;
1679;SDS011;838;51.794;12.258;2023-06-01T00:27:32;2.77;;;1.70;;
1679;SDS011;838;51.794;12.258;2023-06-01T00:29:58;4.03;;;2.20;;
1679;SDS011;838;51.794;12.258;2023-06-01T00:32:24;3.60;;;1.90;;
1679;SDS011;838;51.794;12.258;2023-06-01T00:34:49;4.63;;;2.27;;
1679;SDS011;838;51.794;12.258;2023-06-01T00:37:15;3.30;;;2.00;;
1679;SDS011;838;51.794;12.258;2023-06-01T00:39:41;3.53;;;1.50;;
1679;SDS011;838;51.794;12.258;2023-06-01T00:42:06;3.20;;;1.97;;
1679;SDS011;838;51.794;12.258;2023-06-01T00:44:32;3.57;;;1.70;;
1679;SDS011;838;51.794;12.258;2023-06-01T00:46:58;3.00;;;1.90;;
1679;SDS011;838;51.794;12.258;2023-06-01T00:49:24;3.30;;;1.77;;
1679;SDS011;838;51.794;12.258;2023-06-01T00:51:51;4.40;;;2.10;;
1679;SDS011;838;51.794;12.258;2023-06-01T00:54:17;4.00;;;2.33;;
1679;SDS011;838;51.794;12.258;2023-06-01T00:56:43;2.97;;;1.90;;
1679;SDS011;838;51.794;12.258;2023-06-01T00:59:09;3.37;;;1.70;;
1679;SDS011;838;51.794;12.258;2023-06-01T01:01:36;4.63;;;2.13;;
1679;SDS011;838;51.794;12.258;2023-06-01T01:04:02;4.93;;;2.80;;
1679;SDS011;838;51.794;12.258;2023-06-01T01:09:19;2.93;;;1.60;;
1679;SDS011;838;51.794;12.258;2023-06-01T01:11:51;5.23;;;2.30;;
1679;SDS011;838;51.794;12.258;2023-06-01T01:14:24;3.17;;;1.70;;
1679;SDS011;838;51.794;12.258;2023-06-01T01:17:14;4.70;;;2.03;;
1679;SDS011;838;51.794;12.258;2023-06-01T01:22:30;3.67;;;2.23;;
1679;SDS011;838;51.794;12.258;2023-06-01T01:25:13;2.93;;;1.60;;
1679;SDS011;838;51.794;12.258;2023-06-01T01:30:29;3.20;;;2.10;;
1679;SDS011;838;51.794;12.258;2023-06-01T01:32:56;2.93;;;1.90;;
1679;SDS011;838;51.794;12.258;2023-06-01T01:35:23;4.60;;;2.00;;
1679;SDS011;838;51.794;12.258;2023-06-01T01:37:54;4.67;;;2.00;;
1679;SDS011;838;51.794;12.258;2023-06-01T01:40:23;3.50;;;2.30;;
1679;SDS011;838;51.794;12.258;2023-06-01T01:42:49;3.43;;;1.87;;
1679;SDS011;838;51.794;12.258;2023-06-01T01:45:16;4.00;;;2.40;;
1679;SDS011;838;51.794;12.258;2023-06-01T01:50:36;3.13;;;1.90;;
1679;SDS011;838;51.794;12.258;2023-06-01T01:53:06;4.03;;;2.23;;
1679;SDS011;838;51.794;12.258;2023-06-01T01:55:35;2.80;;;1.97;;
1679;SDS011;838;51.794;12.258;2023-06-01T01:58:02;4.33;;;2.20;;
1679;SDS011;838;51.794;12.258;2023-06-01T02:00:29;4.17;;;2.53;;
1679;SDS011;838;51.794;12.258;2023-06-01T02:02:57;3.43;;;2.27;;
1679;SDS011;838;51.794;12.258;2023-06-01T02:05:24;6.03;;;2.80;;
1679;SDS011;838;51.794;12.258;2023-06-01T02:07:50;3.50;;;2.13;;
1679;SDS011;838;51.794;12.258;2023-06-01T02:10:15;4.80;;;2.17;;
1679;SDS011;838;51.794;12.258;2023-06-01T02:12:41;4.07;;;2.33;;
1679;SDS011;838;51.794;12.258;2023-06-01T02:15:07;3.67;;;1.90;;
1679;SDS011;838;51.794;12.258;2023-06-01T02:17:33;4.07;;;2.03;;
1679;SDS011;838;51.794;12.258;2023-06-01T02:20:00;2.90;;;1.80;;
1679;SDS011;838;51.794;12.258;2023-06-01T02:22:26;3.50;;;2.27;;
1679;SDS011;838;51.794;12.258;2023-06-01T02:24:55;4.73;;;2.27;;
1679;SDS011;838;51.794;12.258;2023-06-01T02:27:20;3.43;;;1.70;;
1679;SDS011;838;51.794;12.258;2023-06-01T02:29:48;3.27;;;2.03;;
1679;SDS011;838;51.794;12.258;2023-06-01T02:32:14;4.03;;;2.43;;
1679;SDS011;838;51.794;12.258;2023-06-01T02:34:39;6.33;;;2.10;;
1679;SDS011;838;51.794;12.258;2023-06-01T02:37:09;4.90;;;2.57;;
1679;SDS011;838;51.794;12.258;2023-06-01T02:39:37;5.00;;;2.07;;
1679;SDS011;838;51.794;12.258;2023-06-01T02:42:06;4.60;;;2.53;;
1679;SDS011;838;51.794;12.258;2023-06-01T02:44:35;9.60;;;2.40;;
1679;SDS011;838;51.794;12.258;2023-06-01T02:47:01;4.10;;;2.20;;
1679;SDS011;838;51.794;12.258;2023-06-01T02:49:27;5.27;;;2.60;;
1679;SDS011;838;51.794;12.258;2023-06-01T02:51:53;5.13;;;2.80;;
1679;SDS011;838;51.794;12.258;2023-06-01T02:54:22;4.10;;;2.20;;
1679;SDS011;838;51.794;12.258;2023-06-01T02:56:47;5.07;;;2.23;;
1679;SDS011;838;51.794;12.258;2023-06-01T02:59:13;3.33;;;2.13;;
1679;SDS011;838;51.794;12.258;2023-06-01T03:01:39;4.53;;;2.70;;
1679;SDS011;838;51.794;12.258;2023-06-01T03:04:05;4.20;;;2.70;;
1679;SDS011;838;51.794;12.258;2023-06-01T03:06:32;4.23;;;2.37;;
1679;SDS011;838;51.794;12.258;2023-06-01T03:09:03;6.43;;;2.50;;
1679;SDS011;838;51.794;12.258;2023-06-01T03:11:30;4.67;;;3.10;;
1679;SDS011;838;51.794;12.258;2023-06-01T03:13:55;5.03;;;3.10;;
1679;SDS011;838;51.794;12.258;2023-06-01T03:16:24;6.00;;;3.00;;
1679;SDS011;838;51.794;12.258;2023-06-01T03:18:54;6.20;;;2.77;;
1679;SDS011;838;51.794;12.258;2023-06-01T03:21:20;5.90;;;3.20;;
1679;SDS011;838;51.794;12.258;2023-06-01T03:23:46;5.87;;;3.23;;
1679;SDS011;838;51.794;12.258;2023-06-01T03:26:12;4.77;;;3.27;;
1679;SDS011;838;51.794;12.258;2023-06-01T03:28:39;4.30;;;2.83;;
1679;SDS011;838;51.794;12.258;2023-06-01T03:31:04;5.50;;;3.27;;
1679;SDS011;838;51.794;12.258;2023-06-01T03:33:32;5.23;;;3.67;;
1679;SDS011;838;51.794;12.258;2023-06-01T03:35:58;7.37;;;2.90;;
1679;SDS011;838;51.794;12.258;2023-06-01T03:38:24;8.60;;;3.30;;
1679;SDS011;838;51.794;12.258;2023-06-01T03:40:50;8.80;;;3.77;;
1679;SDS011;838;51.794;12.258;2023-06-01T03:43:15;8.23;;;4.30;;
1679;SDS011;838;51.794;12.258;2023-06-01T03:45:41;5.10;;;3.80;;
1679;SDS011;838;51.794;12.258;2023-06-01T03:48:07;6.80;;;4.30;;
1679;SDS011;838;51.794;12.258;2023-06-01T03:50:33;6.13;;;3.37;;
1679;SDS011;838;51.794;12.258;2023-06-01T03:52:59;6.63;;;3.83;;
1679;SDS011;838;51.794;12.258;2023-06-01T03:55:25;5.87;;;3.83;;
1679;SDS011;838;51.794;12.258;2023-06-01T03:57:51;8.43;;;4.10;;
1679;SDS011;838;51.794;12.258;2023-06-01T04:00:18;6.30;;;3.93;;
1679;SDS011;838;51.794;12.258;2023-06-01T04:02:48;7.60;;;4.57;;
1679;SDS011;838;51.794;12.258;2023-06-01T04:05:20;5.83;;;3.20;;
1679;SDS011;838;51.794;12.258;2023-06-01T04:07:47;7.90;;;4.37;;
1679;SDS011;838;51.794;12.258;2023-06-01T04:10:16;7.60;;;4.30;;
1679;SDS011;838;51.794;12.258;2023-06-01T04:12:43;7.60;;;3.97;;
1679;SDS011;838;51.794;12.258;2023-06-01T04:15:09;9.10;;;4.43;;
1679;SDS011;838;51.794;12.258;2023-06-01T04:17:37;7.07;;;3.73;;
1679;SDS011;838;51.794;12.258;2023-06-01T04:20:04;6.47;;;4.13;;
1679;SDS011;838;51.794;12.258;2023-06-01T04:22:34;7.13;;;4.40;;
1679;SDS011;838;51.794;12.258;2023-06-01T04:25:00;8.20;;;5.23;;
1679;SDS011;838;51.794;12.258;2023-06-01T04:27:27;6.37;;;4.30;;
1679;SDS011;838;51.794;12.258;2023-06-01T04:29:53;7.43;;;4.20;;
1679;SDS011;838;51.794;12.258;2023-06-01T04:32:19;8.20;;;4.33;;
1679;SDS011;838;51.794;12.258;2023-06-01T04:34:48;8.60;;;4.40;;
1679;SDS011;838;51.794;12.258;2023-06-01T04:37:17;7.90;;;4.40;;
1679;SDS011;838;51.794;12.258;2023-06-01T04:39:46;11.97;;;5.37;;
1679;SDS011;838;51.794;12.258;2023-06-01T04:42:15;7.77;;;5.00;;
1679;SDS011;838;51.794;12.258;2023-06-01T04:44:45;7.30;;;5.27;;
1679;SDS011;838;51.794;12.258;2023-06-01T04:47:15;6.80;;;4.27;;
1679;SDS011;838;51.794;12.258;2023-06-01T04:49:42;13.70;;;5.87;;
1679;SDS011;838;51.794;12.258;2023-06-01T04:52:08;10.00;;;5.80;;
1679;SDS011;838;51.794;12.258;2023-06-01T04:54:39;7.93;;;4.60;;
1679;SDS011;838;51.794;12.258;2023-06-01T04:57:05;7.90;;;5.10;;
1679;SDS011;838;51.794;12.258;2023-06-01T04:59:31;8.50;;;4.40;;
1679;SDS011;838;51.794;12.258;2023-06-01T05:01:58;15.00;;;6.33;;
1679;SDS011;838;51.794;12.258;2023-06-01T05:04:24;9.53;;;6.23;;
1679;SDS011;838;51.794;12.258;2023-06-01T05:06:50;11.17;;;6.30;;
1679;SDS011;838;51.794;12.258;2023-06-01T05:09:16;11.60;;;5.57;;
1679;SDS011;838;51.794;12.258;2023-06-01T05:11:43;10.37;;;5.57;;
1679;SDS011;838;51.794;12.258;2023-06-01T05:14:09;11.20;;;6.93;;
1679;SDS011;838;51.794;12.258;2023-06-01T05:16:34;10.30;;;7.20;;
1679;SDS011;838;51.794;12.258;2023-06-01T05:19:00;11.20;;;6.73;;
1679;SDS011;838;51.794;12.258;2023-06-01T05:21:26;10.53;;;7.40;;
1679;SDS011;838;51.794;12.258;2023-06-01T05:23:53;11.30;;;7.10;;
1679;SDS011;838;51.794;12.258;2023-06-01T05:26:18;11.40;;;7.10;;
1679;SDS011;838;51.794;12.258;2023-06-01T05:28:44;13.63;;;8.03;;
1679;SDS011;838;51.794;12.258;2023-06-01T05:31:10;13.20;;;7.20;;
1679;SDS011;838;51.794;12.258;2023-06-01T05:33:36;13.70;;;8.80;;
1679;SDS011;838;51.794;12.258;2023-06-01T05:36:02;11.00;;;7.80;;
1679;SDS011;838;51.794;12.258;2023-06-01T05:38:28;10.60;;;6.87;;
1679;SDS011;838;51.794;12.258;2023-06-01T05:40:54;10.20;;;6.90;;
1679;SDS011;838;51.794;12.258;2023-06-01T05:43:19;11.93;;;7.30;;
1679;SDS011;838;51.794;12.258;2023-06-01T05:45:45;9.10;;;6.67;;
1679;SDS011;838;51.794;12.258;2023-06-01T05:48:11;12.03;;;7.13;;
1679;SDS011;838;51.794;12.258;2023-06-01T05:50:39;11.80;;;8.00;;
1679;SDS011;838;51.794;12.258;2023-06-01T05:53:06;11.30;;;7.07;;
1679;SDS011;838;51.794;12.258;2023-06-01T05:55:32;9.63;;;6.40;;
1679;SDS011;838;51.794;12.258;2023-06-01T05:57:58;8.70;;;6.07;;
1679;SDS011;838;51.794;12.258;2023-06-01T06:00:23;11.17;;;7.93;;
1679;SDS011;838;51.794;12.258;2023-06-01T06:02:49;9.87;;;6.50;;
1679;SDS011;838;51.794;12.258;2023-06-01T06:05:15;9.83;;;6.80;;
1679;SDS011;838;51.794;12.258;2023-06-01T06:07:41;9.37;;;6.53;;
1679;SDS011;838;51.794;12.258;2023-06-01T06:10:07;13.87;;;8.17;;
1679;SDS011;838;51.794;12.258;2023-06-01T06:12:33;10.80;;;7.00;;
1679;SDS011;838;51.794;12.258;2023-06-01T06:14:59;10.50;;;6.83;;
1679;SDS011;838;51.794;12.258;2023-06-01T06:17:27;9.10;;;6.43;;
1679;SDS011;838;51.794;12.258;2023-06-01T06:19:53;15.40;;;7.60;;
1679;SDS011;838;51.794;12.258;2023-06-01T06:22:19;8.87;;;7.00;;
1679;SDS011;838;51.794;12.258;2023-06-01T06:24:45;11.10;;;7.40;;
1679;SDS011;838;51.794;12.258;2023-06-01T06:27:12;12.10;;;7.73;;
1679;SDS011;838;51.794;12.258;2023-06-01T06:29:41;13.37;;;8.13;;
1679;SDS011;838;51.794;12.258;2023-06-01T06:32:07;10.50;;;7.93;;
1679;SDS011;838;51.794;12.258;2023-06-01T06:34:33;12.60;;;7.30;;
1679;SDS011;838;51.794;12.258;2023-06-01T06:37:07;11.87;;;7.50;;
1679;SDS011;838;51.794;12.258;2023-06-01T06:39:36;10.80;;;8.10;;
1679;SDS011;838;51.794;12.258;2023-06-01T06:42:02;9.87;;;7.10;;
1679;SDS011;838;51.794;12.258;2023-06-01T06:44:30;10.57;;;6.93;;
1679;SDS011;838;51.794;12.258;2023-06-01T06:46:57;9.90;;;7.00;;
1679;SDS011;838;51.794;12.258;2023-06-01T06:49:31;10.60;;;6.57;;
1679;SDS011;838;51.794;12.258;2023-06-01T06:52:02;8.77;;;6.10;;
1679;SDS011;838;51.794;12.258;2023-06-01T06:54:35;10.27;;;7.00;;
1679;SDS011;838;51.794;12.258;2023-06-01T06:57:09;8.13;;;5.87;;
1679;SDS011;838;51.794;12.258;2023-06-01T06:59:35;10.60;;;6.10;;
1679;SDS011;838;51.794;12.258;2023-06-01T07:02:01;8.03;;;5.53;;
1679;SDS011;838;51.794;12.258;2023-06-01T07:04:28;7.07;;;5.07;;
1679;SDS011;838;51.794;12.258;2023-06-01T07:06:55;8.20;;;4.90;;
1679;SDS011;838;51.794;12.258;2023-06-01T07:09:21;7.30;;;5.33;;
1679;SDS011;838;51.794;12.258;2023-06-01T07:11:47;7.30;;;5.63;;
1679;SDS011;838;51.794;12.258;2023-06-01T07:14:16;8.73;;;4.67;;
1679;SDS011;838;51.794;12.258;2023-06-01T07:16:42;8.13;;;6.30;;
1679;SDS011;838;51.794;12.258;2023-06-01T07:19:07;7.20;;;5.20;;
1679;SDS011;838;51.794;12.258;2023-06-01T07:21:38;7.23;;;5.70;;
1679;SDS011;838;51.794;12.258;2023-06-01T07:24:05;9.37;;;5.47;;
1679;SDS011;838;51.794;12.258;2023-06-01T07:26:35;11.10;;;5.20;;
1679;SDS011;838;51.794;12.258;2023-06-01T07:29:01;7.70;;;5.40;;
1679;SDS011;838;51.794;12.258;2023-06-01T07:31:28;7.93;;;5.43;;
1679;SDS011;838;51.794;12.258;2023-06-01T07:34:00;9.70;;;5.80;;
1679;SDS011;838;51.794;12.258;2023-06-01T07:36:26;8.80;;;5.20;;
1679;SDS011;838;51.794;12.258;2023-06-01T07:38:52;11.13;;;5.87;;
1679;SDS011;838;51.794;12.258;2023-06-01T07:41:18;8.47;;;5.80;;
1679;SDS011;838;51.794;12.258;2023-06-01T07:43:46;9.23;;;5.43;;
1679;SDS011;838;51.794;12.258;2023-06-01T07:46:15;7.67;;;5.00;;
1679;SDS011;838;51.794;12.258;2023-06-01T07:48:41;7.90;;;6.80;;
1679;SDS011;838;51.794;12.258;2023-06-01T07:51:12;9.97;;;5.90;;
1679;SDS011;838;51.794;12.258;2023-06-01T07:53:38;11.37;;;6.20;;
1679;SDS011;838;51.794;12.258;2023-06-01T07:56:08;7.77;;;4.70;;
1679;SDS011;838;51.794;12.258;2023-06-01T07:58:34;7.30;;;5.80;;
1679;SDS011;838;51.794;12.258;2023-06-01T08:01:02;11.73;;;5.87;;
1679;SDS011;838;51.794;12.258;2023-06-01T08:03:28;8.23;;;6.07;;
1679;SDS011;838;51.794;12.258;2023-06-01T08:05:53;8.50;;;5.47;;
1679;SDS011;838;51.794;12.258;2023-06-01T08:08:22;9.33;;;5.73;;
1679;SDS011;838;51.794;12.258;2023-06-01T08:10:48;10.63;;;5.87;;
1679;SDS011;838;51.794;12.258;2023-06-01T08:13:15;7.40;;;5.40;;
1679;SDS011;838;51.794;12.258;2023-06-01T08:15:41;10.03;;;6.27;;
1679;SDS011;838;51.794;12.258;2023-06-01T08:18:08;9.30;;;5.80;;
1679;SDS011;838;51.794;12.258;2023-06-01T08:20:34;8.60;;;5.70;;
1679;SDS011;838;51.794;12.258;2023-06-01T08:23:00;8.63;;;6.00;;
1679;SDS011;838;51.794;12.258;2023-06-01T08:25:27;9.07;;;6.73;;
1679;SDS011;838;51.794;12.258;2023-06-01T08:27:53;9.57;;;6.10;;
1679;SDS011;838;51.794;12.258;2023-06-01T08:30:20;7.50;;;5.87;;
1679;SDS011;838;51.794;12.258;2023-06-01T08:32:48;8.87;;;6.00;;
1679;SDS011;838;51.794;12.258;2023-06-01T08:35:14;11.77;;;6.20;;
1679;SDS011;838;51.794;12.258;2023-06-01T08:37:44;8.73;;;6.27;;
1679;SDS011;838;51.794;12.258;2023-06-01T08:40:12;8.63;;;7.10;;
1679;SDS011;838;51.794;12.258;2023-06-01T08:42:42;6.40;;;4.50;;
1679;SDS011;838;51.794;12.258;2023-06-01T08:45:10;8.30;;;5.37;;
1679;SDS011;838;51.794;12.258;2023-06-01T08:47:38;6.93;;;4.80;;
1679;SDS011;838;51.794;12.258;2023-06-01T08:50:05;6.40;;;5.10;;
1679;SDS011;838;51.794;12.258;2023-06-01T08:52:34;10.13;;;4.80;;
1679;SDS011;838;51.794;12.258;2023-06-01T08:55:02;6.77;;;4.80;;
1679;SDS011;838;51.794;12.258;2023-06-01T08:57:28;9.37;;;5.80;;
1679;SDS011;838;51.794;12.258;2023-06-01T08:59:55;7.23;;;4.80;;
1679;SDS011;838;51.794;12.258;2023-06-01T09:02:21;6.80;;;4.80;;
1679;SDS011;838;51.794;12.258;2023-06-01T09:04:48;9.77;;;5.87;;
1679;SDS011;838;51.794;12.258;2023-06-01T09:07:14;6.97;;;5.27;;
1679;SDS011;838;51.794;12.258;2023-06-01T09:09:40;12.37;;;6.30;;
1679;SDS011;838;51.794;12.258;2023-06-01T09:12:19;9.80;;;6.17;;
1679;SDS011;838;51.794;12.258;2023-06-01T09:14:49;7.77;;;4.67;;
1679;SDS011;838;51.794;12.258;2023-06-01T09:17:23;8.73;;;4.40;;
1679;SDS011;838;51.794;12.258;2023-06-01T09:19:55;8.63;;;5.10;;
1679;SDS011;838;51.794;12.258;2023-06-01T09:22:22;8.03;;;4.90;;
1679;SDS011;838;51.794;12.258;2023-06-01T09:25:00;7.93;;;4.77;;
1679;SDS011;838;51.794;12.258;2023-06-01T09:27:26;6.63;;;5.13;;
1679;SDS011;838;51.794;12.258;2023-06-01T09:29:55;7.17;;;4.97;;
1679;SDS011;838;51.794;12.258;2023-06-01T09:32:22;7.47;;;4.13;;
1679;SDS011;838;51.794;12.258;2023-06-01T09:34:49;8.13;;;4.00;;
1679;SDS011;838;51.794;12.258;2023-06-01T09:37:15;6.83;;;4.30;;
1679;SDS011;838;51.794;12.258;2023-06-01T09:39:42;8.10;;;4.43;;
1679;SDS011;838;51.794;12.258;2023-06-01T09:42:09;7.07;;;4.43;;
1679;SDS011;838;51.794;12.258;2023-06-01T09:44:39;7.17;;;4.93;;
1679;SDS011;838;51.794;12.258;2023-06-01T09:47:07;5.70;;;4.20;;
1679;SDS011;838;51.794;12.258;2023-06-01T09:49:42;10.07;;;4.80;;
1679;SDS011;838;51.794;12.258;2023-06-01T09:52:10;9.40;;;4.50;;
1679;SDS011;838;51.794;12.258;2023-06-01T09:54:47;6.33;;;4.63;;
1679;SDS011;838;51.794;12.258;2023-06-01T09:57:26;7.27;;;4.50;;
1679;SDS011;838;51.794;12.258;2023-06-01T09:59:58;7.60;;;4.40;;
1679;SDS011;838;51.794;12.258;2023-06-01T10:02:34;8.23;;;4.83;;
1679;SDS011;838;51.794;12.258;2023-06-01T10:05:05;6.70;;;4.17;;
1679;SDS011;838;51.794;12.258;2023-06-01T10:07:31;7.53;;;4.73;;
1679;SDS011;838;51.794;12.258;2023-06-01T10:09:59;8.17;;;5.23;;
1679;SDS011;838;51.794;12.258;2023-06-01T10:12:28;8.43;;;5.10;;
1679;SDS011;838;51.794;12.258;2023-06-01T10:14:57;6.47;;;4.40;;
1679;SDS011;838;51.794;12.258;2023-06-01T10:17:23;6.80;;;4.67;;
1679;SDS011;838;51.794;12.258;2023-06-01T10:19:50;8.77;;;5.70;;
1679;SDS011;838;51.794;12.258;2023-06-01T10:22:16;6.47;;;4.40;;
1679;SDS011;838;51.794;12.258;2023-06-01T10:24:42;6.60;;;4.40;;
1679;SDS011;838;51.794;12.258;2023-06-01T10:29:52;6.73;;;4.73;;
1679;SDS011;838;51.794;12.258;2023-06-01T10:35:50;5.97;;;4.23;;
1679;SDS011;838;51.794;12.258;2023-06-01T10:43:09;7.80;;;4.53;;
1679;SDS011;838;51.794;12.258;2023-06-01T10:46:00;6.60;;;4.03;;
1679;SDS011;838;51.794;12.258;2023-06-01T10:51:22;6.20;;;4.60;;
1679;SDS011;838;51.794;12.258;2023-06-01T10:53:53;6.17;;;4.63;;
1679;SDS011;838;51.794;12.258;2023-06-01T10:56:23;7.03;;;4.07;;
1679;SDS011;838;51.794;12.258;2023-06-01T11:01:38;8.70;;;5.03;;
1679;SDS011;838;51.794;12.258;2023-06-01T11:04:05;7.27;;;4.07;;
1679;SDS011;838;51.794;12.258;2023-06-01T11:09:03;6.50;;;3.80;;
1679;SDS011;838;51.794;12.258;2023-06-01T11:14:18;8.40;;;4.80;;
1679;SDS011;838;51.794;12.258;2023-06-01T11:16:46;9.47;;;4.57;;
1679;SDS011;838;51.794;12.258;2023-06-01T11:19:35;7.93;;;4.00;;
1679;SDS011;838;51.794;12.258;2023-06-01T11:22:05;9.07;;;3.93;;
1679;SDS011;838;51.794;12.258;2023-06-01T11:24:37;8.20;;;4.50;;
1679;SDS011;838;51.794;12.258;2023-06-01T11:27:10;6.00;;;4.00;;
1679;SDS011;838;51.794;12.258;2023-06-01T11:29:50;6.97;;;3.80;;
1679;SDS011;838;51.794;12.258;2023-06-01T11:32:21;5.37;;;3.80;;
1679;SDS011;838;51.794;12.258;2023-06-01T11:34:50;5.70;;;3.33;;
1679;SDS011;838;51.794;12.258;2023-06-01T11:37:19;6.07;;;3.40;;
1679;SDS011;838;51.794;12.258;2023-06-01T11:39:48;9.50;;;3.10;;
1679;SDS011;838;51.794;12.258;2023-06-01T11:42:23;5.60;;;3.33;;
1679;SDS011;838;51.794;12.258;2023-06-01T11:45:02;7.80;;;4.30;;
1679;SDS011;838;51.794;12.258;2023-06-01T11:47:30;5.90;;;3.33;;
1679;SDS011;838;51.794;12.258;2023-06-01T11:49:55;7.00;;;4.10;;
1679;SDS011;838;51.794;12.258;2023-06-01T11:52:21;6.07;;;3.40;;
1679;SDS011;838;51.794;12.258;2023-06-01T11:54:47;8.30;;;4.13;;
1679;SDS011;838;51.794;12.258;2023-06-01T11:57:17;6.10;;;3.70;;
1679;SDS011;838;51.794;12.258;2023-06-01T11:59:47;5.73;;;4.00;;
1679;SDS011;838;51.794;12.258;2023-06-01T12:02:26;7.70;;;4.60;;
1679;SDS011;838;51.794;12.258;2023-06-01T12:05:05;4.67;;;3.20;;
1679;SDS011;838;51.794;12.258;2023-06-01T12:07:54;4.80;;;3.63;;
1679;SDS011;838;51.794;12.258;2023-06-01T12:10:20;6.90;;;3.33;;
1679;SDS011;838;51.794;12.258;2023-06-01T12:12:47;7.50;;;4.07;;
1679;SDS011;838;51.794;12.258;2023-06-01T12:15:13;4.40;;;3.03;;
1679;SDS011;838;51.794;12.258;2023-06-01T12:17:50;7.10;;;3.10;;
1679;SDS011;838;51.794;12.258;2023-06-01T12:20:30;5.20;;;3.10;;
1679;SDS011;838;51.794;12.258;2023-06-01T12:23:02;5.60;;;3.13;;
1679;SDS011;838;51.794;12.258;2023-06-01T12:28:20;5.50;;;2.47;;
1679;SDS011;838;51.794;12.258;2023-06-01T12:30:49;4.40;;;2.70;;
1679;SDS011;838;51.794;12.258;2023-06-01T12:33:32;4.20;;;2.70;;
1679;SDS011;838;51.794;12.258;2023-06-01T12:36:00;4.97;;;2.87;;
1679;SDS011;838;51.794;12.258;2023-06-01T12:38:27;4.40;;;2.47;;
1679;SDS011;838;51.794;12.258;2023-06-01T12:41:09;4.57;;;2.60;;
1679;SDS011;838;51.794;12.258;2023-06-01T12:43:37;6.10;;;2.40;;
1679;SDS011;838;51.794;12.258;2023-06-01T12:46:04;7.20;;;2.43;;
1679;SDS011;838;51.794;12.258;2023-06-01T12:48:34;5.03;;;2.20;;
1679;SDS011;838;51.794;12.258;2023-06-01T12:51:04;4.50;;;2.43;;
1679;SDS011;838;51.794;12.258;2023-06-01T12:53:33;3.43;;;2.10;;
1679;SDS011;838;51.794;12.258;2023-06-01T12:55:59;6.30;;;2.47;;
1679;SDS011;838;51.794;12.258;2023-06-01T12:58:24;4.30;;;2.13;;
1679;SDS011;838;51.794;12.258;2023-06-01T13:00:53;4.27;;;2.00;;
1679;SDS011;838;51.794;12.258;2023-06-01T13:03:19;3.90;;;2.40;;
1679;SDS011;838;51.794;12.258;2023-06-01T13:05:47;5.50;;;2.40;;
1679;SDS011;838;51.794;12.258;2023-06-01T13:08:15;6.70;;;2.03;;
1679;SDS011;838;51.794;12.258;2023-06-01T13:10:41;4.23;;;2.27;;
1679;SDS011;838;51.794;12.258;2023-06-01T13:13:08;4.07;;;2.47;;
1679;SDS011;838;51.794;12.258;2023-06-01T13:15:34;3.57;;;2.07;;
1679;SDS011;838;51.794;12.258;2023-06-01T13:18:01;5.27;;;2.30;;
1679;SDS011;838;51.794;12.258;2023-06-01T13:20:27;4.83;;;2.77;;
1679;SDS011;838;51.794;12.258;2023-06-01T13:22:52;4.80;;;2.30;;
1679;SDS011;838;51.794;12.258;2023-06-01T13:25:18;3.37;;;2.07;;
1679;SDS011;838;51.794;12.258;2023-06-01T13:27:45;4.40;;;2.47;;
1679;SDS011;838;51.794;12.258;2023-06-01T13:30:11;5.67;;;2.67;;
1679;SDS011;838;51.794;12.258;2023-06-01T13:32:38;6.90;;;2.40;;
1679;SDS011;838;51.794;12.258;2023-06-01T13:35:04;4.60;;;2.37;;
1679;SDS011;838;51.794;12.258;2023-06-01T13:37:31;4.37;;;2.57;;
1679;SDS011;838;51.794;12.258;2023-06-01T13:39:57;4.80;;;2.77;;
1679;SDS011;838;51.794;12.258;2023-06-01T13:42:26;5.07;;;2.63;;
1679;SDS011;838;51.794;12.258;2023-06-01T13:44:52;5.40;;;2.37;;
1679;SDS011;838;51.794;12.258;2023-06-01T13:47:20;4.57;;;2.50;;
1679;SDS011;838;51.794;12.258;2023-06-01T13:49:53;5.63;;;3.17;;
1679;SDS011;838;51.794;12.258;2023-06-01T13:52:19;4.80;;;3.00;;
1679;SDS011;838;51.794;12.258;2023-06-01T13:54:45;6.73;;;3.00;;
1679;SDS011;838;51.794;12.258;2023-06-01T13:57:11;4.40;;;2.23;;
1679;SDS011;838;51.794;12.258;2023-06-01T13:59:47;3.40;;;2.30;;
1679;SDS011;838;51.794;12.258;2023-06-01T14:02:16;4.53;;;2.30;;
1679;SDS011;838;51.794;12.258;2023-06-01T14:04:41;4.20;;;2.20;;
1679;SDS011;838;51.794;12.258;2023-06-01T14:07:10;4.93;;;2.63;;
1679;SDS011;838;51.794;12.258;2023-06-01T14:09:45;3.40;;;2.20;;
1679;SDS011;838;51.794;12.258;2023-06-01T14:12:14;5.43;;;2.43;;
1679;SDS011;838;51.794;12.258;2023-06-01T14:14:49;4.17;;;2.53;;
1679;SDS011;838;51.794;12.258;2023-06-01T14:17:15;4.90;;;2.60;;
1679;SDS011;838;51.794;12.258;2023-06-01T14:19:41;4.40;;;2.53;;
1679;SDS011;838;51.794;12.258;2023-06-01T14:22:06;4.63;;;2.70;;
1679;SDS011;838;51.794;12.258;2023-06-01T14:24:32;6.40;;;3.07;;
1679;SDS011;838;51.794;12.258;2023-06-01T14:26:58;4.77;;;2.50;;
1679;SDS011;838;51.794;12.258;2023-06-01T14:29:24;6.53;;;3.30;;
1679;SDS011;838;51.794;12.258;2023-06-01T14:31:56;6.00;;;3.53;;
1679;SDS011;838;51.794;12.258;2023-06-01T14:34:22;5.03;;;2.57;;
1679;SDS011;838;51.794;12.258;2023-06-01T14:36:47;6.20;;;2.97;;
1679;SDS011;838;51.794;12.258;2023-06-01T14:39:14;4.00;;;2.63;;
1679;SDS011;838;51.794;12.258;2023-06-01T14:41:42;4.83;;;3.20;;
1679;SDS011;838;51.794;12.258;2023-06-01T14:44:08;5.63;;;3.10;;
1679;SDS011;838;51.794;12.258;2023-06-01T14:46:34;4.40;;;3.00;;
1679;SDS011;838;51.794;12.258;2023-06-01T14:49:03;5.40;;;3.10;;
1679;SDS011;838;51.794;12.258;2023-06-01T14:51:31;5.80;;;3.60;;
1679;SDS011;838;51.794;12.258;2023-06-01T14:54:00;4.40;;;2.53;;
1679;SDS011;838;51.794;12.258;2023-06-01T14:56:32;6.53;;;2.60;;
1679;SDS011;838;51.794;12.258;2023-06-01T14:59:10;4.00;;;2.70;;
1679;SDS011;838;51.794;12.258;2023-06-01T15:01:36;5.50;;;3.30;;
1679;SDS011;838;51.794;12.258;2023-06-01T15:04:06;4.60;;;3.23;;
1679;SDS011;838;51.794;12.258;2023-06-01T15:06:35;5.10;;;3.33;;
1679;SDS011;838;51.794;12.258;2023-06-01T15:09:03;6.93;;;3.03;;
1679;SDS011;838;51.794;12.258;2023-06-01T15:11:41;5.80;;;2.63;;
1679;SDS011;838;51.794;12.258;2023-06-01T15:14:17;3.50;;;2.27;;
1679;SDS011;838;51.794;12.258;2023-06-01T15:16:44;3.77;;;2.50;;
1679;SDS011;838;51.794;12.258;2023-06-01T15:19:19;6.60;;;3.30;;
1679;SDS011;838;51.794;12.258;2023-06-01T15:21:44;7.60;;;2.60;;
1679;SDS011;838;51.794;12.258;2023-06-01T15:24:16;3.93;;;2.43;;
1679;SDS011;838;51.794;12.258;2023-06-01T15:26:45;5.20;;;2.37;;
1679;SDS011;838;51.794;12.258;2023-06-01T15:29:12;6.00;;;2.60;;
1679;SDS011;838;51.794;12.258;2023-06-01T15:31:39;3.23;;;1.90;;
1679;SDS011;838;51.794;12.258;2023-06-01T15:34:10;4.20;;;2.30;;
1679;SDS011;838;51.794;12.258;2023-06-01T15:36:36;4.27;;;2.10;;
1679;SDS011;838;51.794;12.258;2023-06-01T15:39:03;4.23;;;2.13;;
1679;SDS011;838;51.794;12.258;2023-06-01T15:41:44;4.77;;;2.00;;
1679;SDS011;838;51.794;12.258;2023-06-01T15:44:12;5.60;;;2.93;;
1679;SDS011;838;51.794;12.258;2023-06-01T15:46:38;3.20;;;1.77;;
1679;SDS011;838;51.794;12.258;2023-06-01T15:49:07;5.47;;;2.00;;
1679;SDS011;838;51.794;12.258;2023-06-01T15:51:36;4.10;;;2.10;;
1679;SDS011;838;51.794;12.258;2023-06-01T15:54:04;4.23;;;2.40;;